PWSweather.com
Personal Weather Stations
Station Observations
HARSTAD1
Kanebogen, HarstadNO 9411

KanebogenHarstadNO 9411

Lat: 68.7731054, Lon: 16.5496315

Elevation: 213

Station Type: Netatmo Weather Station

http://oddne.net/met/

Latest ConditionsUpdated 3:39:07 PM GMT+01:01 Tuesday, Jul 23, 2019
Currently Today's Max Today's Min Today's Average
Temperature 72.0°F22.2°C 72.0°F22.2°C 55.2°F12.9°C 62.9°F17.2°C
Dew Point 59.0°F15.0°C 60.4°F15.8°C 51.6°F10.9°C 55.7°F13.2°C
Winds 6.2 mph WNW10.0 kmh WNW 11.2 mph -18.0 kmh - - 4.2 mph 6.8 kmh
Wind Gusts 16.2 mph26.1 kmh 25.5 mph41.0 kmh - -
Humidity 64% 89% 64% 78%
Pressure -- -- -- -
Hour Temp Dew Point Humidity Winds Wind Gusts Pressure Precip Precip Rate Daily Precip Total
03:39 PM 72.0°F22.2°C 59.0°F15.0°C 64% 6.2 mph WNW10.0 kmh WNW 16.2 mph26.1 kmh -- 0.00 in0.0 mm 0.00 in0.0 mm 0.00 in0.0 mm
03:29 PM 71.6°F22.0°C 59.2°F15.1°C 65% 5.6 mph WSW9.0 kmh WSW 8.1 mph13.0 kmh -- 0.00 in0.0 mm 0.00 in0.0 mm 0.00 in0.0 mm
03:19 PM 71.6°F22.0°C 59.5°F15.3°C 66% 5.6 mph WSW9.0 kmh WSW 10.6 mph17.1 kmh -- 0.00 in0.0 mm 0.00 in0.0 mm 0.00 in0.0 mm
03:09 PM 71.2°F21.8°C 60.1°F15.6°C 68% 6.8 mph W10.9 kmh W 13.7 mph22.0 kmh -- 0.00 in0.0 mm 0.00 in0.0 mm 0.00 in0.0 mm
02:58 PM 71.1°F21.7°C 59.5°F15.3°C 67% 1.2 mph SW1.9 kmh SW 2.5 mph4.0 kmh -- 0.00 in0.0 mm 0.00 in0.0 mm 0.00 in0.0 mm
02:49 PM 71.1°F21.7°C 59.5°F15.3°C 67% 1.9 mph SW3.1 kmh SW 3.7 mph6.0 kmh -- 0.00 in0.0 mm 0.00 in0.0 mm 0.00 in0.0 mm
02:39 PM 71.1°F21.7°C 60.3°F15.7°C 69% 3.7 mph SW6.0 kmh SW 6.8 mph10.9 kmh -- 0.00 in0.0 mm 0.00 in0.0 mm 0.00 in0.0 mm
02:29 PM 70.3°F21.3°C 60.4°F15.8°C 71% 1.9 mph SW3.1 kmh SW 5.6 mph9.0 kmh -- 0.00 in0.0 mm 0.00 in0.0 mm 0.00 in0.0 mm
02:19 PM 70.0°F21.1°C 59.7°F15.4°C 70% 1.2 mph SW1.9 kmh SW 2.5 mph4.0 kmh -- 0.00 in0.0 mm 0.00 in0.0 mm 0.00 in0.0 mm
02:09 PM 70.0°F21.1°C 59.7°F15.4°C 70% 1.2 mph SW1.9 kmh SW 3.1 mph5.0 kmh -- 0.00 in0.0 mm 0.00 in0.0 mm 0.00 in0.0 mm
01:58 PM 70.2°F21.2°C 60.3°F15.7°C 71% 1.9 mph SW3.1 kmh SW 3.7 mph6.0 kmh -- 0.00 in0.0 mm 0.00 in0.0 mm 0.00 in0.0 mm
01:48 PM 69.6°F20.9°C 59.7°F15.4°C 71% 0.6 mph WSW1.0 kmh WSW 2.5 mph4.0 kmh -- 0.00 in0.0 mm 0.00 in0.0 mm 0.00 in0.0 mm
01:39 PM 69.4°F20.8°C 59.2°F15.1°C 70% 0.6 mph SW1.0 kmh SW 1.9 mph3.1 kmh -- 0.00 in0.0 mm 0.00 in0.0 mm 0.00 in0.0 mm
01:29 PM 69.4°F20.8°C 58.8°F14.9°C 69% 1.2 mph SW1.9 kmh SW 3.1 mph5.0 kmh -- 0.00 in0.0 mm 0.00 in0.0 mm 0.00 in0.0 mm
01:19 PM 69.6°F20.9°C 59.0°F15.0°C 69% 8.1 mph N13.0 kmh N 21.1 mph34.0 kmh -- 0.00 in0.0 mm 0.00 in0.0 mm 0.00 in0.0 mm
01:09 PM 69.4°F20.8°C 58.3°F14.6°C 68% 7.5 mph NNE12.1 kmh NNE 16.8 mph27.0 kmh -- 0.00 in0.0 mm 0.00 in0.0 mm 0.00 in0.0 mm
12:59 PM 69.4°F20.8°C 59.2°F15.1°C 70% 8.1 mph N13.0 kmh N 19.9 mph32.0 kmh -- 0.00 in0.0 mm 0.00 in0.0 mm 0.00 in0.0 mm
12:49 PM 69.4°F20.8°C 59.2°F15.1°C 70% 7.5 mph WNW12.1 kmh WNW 13.1 mph21.1 kmh -- 0.00 in0.0 mm 0.00 in0.0 mm 0.00 in0.0 mm
12:39 PM 69.1°F20.6°C 59.2°F15.1°C 71% 9.9 mph NE15.9 kmh NE 21.8 mph35.1 kmh -- 0.00 in0.0 mm 0.00 in0.0 mm 0.00 in0.0 mm
12:29 PM 68.5°F20.3°C 59.2°F15.1°C 72% 7.5 mph N12.1 kmh N 22.4 mph36.0 kmh -- 0.00 in0.0 mm 0.00 in0.0 mm 0.00 in0.0 mm
12:19 PM 68.2°F20.1°C 59.2°F15.1°C 73% 11.2 mph NNE18.0 kmh NNE 19.9 mph32.0 kmh -- 0.00 in0.0 mm 0.00 in0.0 mm 0.00 in0.0 mm
12:08 PM 67.6°F19.8°C 59.0°F15.0°C 74% 6.8 mph W10.9 kmh W 15.5 mph24.9 kmh -- 0.00 in0.0 mm 0.00 in0.0 mm 0.00 in0.0 mm
11:59 AM 67.1°F19.5°C 58.5°F14.7°C 74% 4.4 mph WSW7.1 kmh WSW 7.5 mph12.1 kmh -- 0.00 in0.0 mm 0.00 in0.0 mm 0.00 in0.0 mm
11:49 AM 66.7°F19.3°C 57.7°F14.3°C 73% 1.2 mph SW1.9 kmh SW 2.5 mph4.0 kmh -- 0.00 in0.0 mm 0.00 in0.0 mm 0.00 in0.0 mm
11:39 AM 66.9°F19.4°C 57.9°F14.4°C 73% 5.0 mph W8.0 kmh W 8.7 mph14.0 kmh -- 0.00 in0.0 mm 0.00 in0.0 mm 0.00 in0.0 mm
11:29 AM 66.7°F19.3°C 57.4°F14.1°C 72% 4.4 mph WSW7.1 kmh WSW 7.5 mph12.1 kmh -- 0.00 in0.0 mm 0.00 in0.0 mm 0.00 in0.0 mm
11:19 AM 66.9°F19.4°C 57.2°F14.0°C 71% 6.8 mph WNW10.9 kmh WNW 14.3 mph23.0 kmh -- 0.00 in0.0 mm 0.00 in0.0 mm 0.00 in0.0 mm
11:09 AM 66.7°F19.3°C 57.4°F14.1°C 72% 6.8 mph WNW10.9 kmh WNW 16.2 mph26.1 kmh -- 0.00 in0.0 mm 0.00 in0.0 mm 0.00 in0.0 mm
10:58 AM 66.9°F19.4°C 57.6°F14.2°C 72% 7.5 mph WNW12.1 kmh WNW 15.5 mph24.9 kmh -- 0.00 in0.0 mm 0.00 in0.0 mm 0.00 in0.0 mm
10:49 AM 66.9°F19.4°C 57.6°F14.2°C 72% 7.5 mph WNW12.1 kmh WNW 15.5 mph24.9 kmh -- 0.00 in0.0 mm 0.00 in0.0 mm 0.00 in0.0 mm
10:39 AM 66.6°F19.2°C 58.3°F14.6°C 75% 7.5 mph WNW12.1 kmh WNW 20.5 mph33.0 kmh -- 0.00 in0.0 mm 0.00 in0.0 mm 0.00 in0.0 mm
10:28 AM 65.3°F18.5°C 57.2°F14.0°C 75% 0.6 mph E1.0 kmh E 1.9 mph3.1 kmh -- 0.00 in0.0 mm 0.00 in0.0 mm 0.00 in0.0 mm
10:19 AM 65.3°F18.5°C 56.3°F13.5°C 73% 1.2 mph SE1.9 kmh SE 2.5 mph4.0 kmh -- 0.00 in0.0 mm 0.00 in0.0 mm 0.00 in0.0 mm
10:09 AM 65.5°F18.6°C 56.5°F13.6°C 73% 0.6 mph S1.0 kmh S 1.9 mph3.1 kmh -- 0.00 in0.0 mm 0.00 in0.0 mm 0.00 in0.0 mm
09:59 AM 65.3°F18.5°C 56.7°F13.7°C 74% 1.2 mph SE1.9 kmh SE 3.1 mph5.0 kmh -- 0.00 in0.0 mm 0.00 in0.0 mm 0.00 in0.0 mm
09:49 AM 64.9°F18.3°C 56.8°F13.8°C 75% 0.6 mph SE1.0 kmh SE 2.5 mph4.0 kmh -- 0.00 in0.0 mm 0.00 in0.0 mm 0.00 in0.0 mm
09:39 AM 64.4°F18.0°C 55.9°F13.3°C 74% 1.2 mph ESE1.9 kmh ESE 3.1 mph5.0 kmh -- 0.00 in0.0 mm 0.00 in0.0 mm 0.00 in0.0 mm
09:29 AM 64.4°F18.0°C 55.9°F13.3°C 74% 0.6 mph E1.0 kmh E 1.9 mph3.1 kmh -- 0.00 in0.0 mm 0.00 in0.0 mm 0.00 in0.0 mm
09:19 AM 64.6°F18.1°C 55.8°F13.2°C 73% 1.2 mph ESE1.9 kmh ESE 2.5 mph4.0 kmh -- 0.00 in0.0 mm 0.00 in0.0 mm 0.00 in0.0 mm
09:08 AM 65.1°F18.4°C 55.8°F13.2°C 72% 1.2 mph SE1.9 kmh SE 3.7 mph6.0 kmh -- 0.00 in0.0 mm 0.00 in0.0 mm 0.00 in0.0 mm
08:59 AM 65.5°F18.6°C 55.8°F13.2°C 71% 0.6 mph SE1.0 kmh SE 1.9 mph3.1 kmh -- 0.00 in0.0 mm 0.00 in0.0 mm 0.00 in0.0 mm
08:49 AM 65.5°F18.6°C 55.8°F13.2°C 71% 1.2 mph SE1.9 kmh SE 1.9 mph3.1 kmh -- 0.00 in0.0 mm 0.00 in0.0 mm 0.00 in0.0 mm
08:39 AM 66.4°F19.1°C 56.3°F13.5°C 70% 5.6 mph SW9.0 kmh SW 9.3 mph15.0 kmh -- 0.00 in0.0 mm 0.00 in0.0 mm 0.00 in0.0 mm
08:29 AM 66.2°F19.0°C 56.5°F13.6°C 71% 3.7 mph SW6.0 kmh SW 8.7 mph14.0 kmh -- 0.00 in0.0 mm 0.00 in0.0 mm 0.00 in0.0 mm
08:19 AM 66.4°F19.1°C 55.8°F13.2°C 69% 6.8 mph SW10.9 kmh SW 18.6 mph29.9 kmh -- 0.00 in0.0 mm 0.00 in0.0 mm 0.00 in0.0 mm
08:09 AM 66.9°F19.4°C 56.8°F13.8°C 70% 10.6 mph NE17.1 kmh NE 21.1 mph34.0 kmh -- 0.00 in0.0 mm 0.00 in0.0 mm 0.00 in0.0 mm
07:59 AM 66.4°F19.1°C 56.7°F13.7°C 71% 10.6 mph E17.1 kmh E 21.1 mph34.0 kmh -- 0.00 in0.0 mm 0.00 in0.0 mm 0.00 in0.0 mm
07:49 AM 65.7°F18.7°C 56.7°F13.7°C 73% 10.6 mph SE17.1 kmh SE 19.3 mph31.1 kmh -- 0.00 in0.0 mm 0.00 in0.0 mm 0.00 in0.0 mm
07:38 AM 64.4°F18.0°C 55.9°F13.3°C 74% 7.5 mph SW12.1 kmh SW 16.2 mph26.1 kmh -- 0.00 in0.0 mm 0.00 in0.0 mm 0.00 in0.0 mm
07:29 AM 64.0°F17.8°C 55.2°F12.9°C 73% 4.4 mph SW7.1 kmh SW 8.1 mph13.0 kmh -- 0.00 in0.0 mm 0.00 in0.0 mm 0.00 in0.0 mm
07:18 AM 64.4°F18.0°C 55.9°F13.3°C 74% 9.3 mph SW15.0 kmh SW 17.4 mph28.0 kmh -- 0.00 in0.0 mm 0.00 in0.0 mm 0.00 in0.0 mm
07:09 AM 64.2°F17.9°C 56.1°F13.4°C 75% 8.7 mph SSE14.0 kmh SSE 18.0 mph29.0 kmh -- 0.00 in0.0 mm 0.00 in0.0 mm 0.00 in0.0 mm
06:59 AM 64.0°F17.8°C 55.9°F13.3°C 75% 9.3 mph SSW15.0 kmh SSW 18.0 mph29.0 kmh -- 0.00 in0.0 mm 0.00 in0.0 mm 0.00 in0.0 mm
06:49 AM 63.3°F17.4°C 55.6°F13.1°C 76% 6.2 mph SSE10.0 kmh SSE 16.2 mph26.1 kmh -- 0.00 in0.0 mm 0.00 in0.0 mm 0.00 in0.0 mm
06:39 AM 62.4°F16.9°C 55.4°F13.0°C 78% 8.1 mph SSW13.0 kmh SSW 18.6 mph29.9 kmh -- 0.00 in0.0 mm 0.00 in0.0 mm 0.00 in0.0 mm
06:28 AM 61.7°F16.5°C 55.0°F12.8°C 79% 9.3 mph 15.0 kmh 21.1 mph34.0 kmh -- 0.00 in0.0 mm 0.00 in0.0 mm 0.00 in0.0 mm
06:19 AM 61.0°F16.1°C 54.7°F12.6°C 80% 9.9 mph 15.9 kmh 23.6 mph38.0 kmh -- 0.00 in0.0 mm 0.00 in0.0 mm 0.00 in0.0 mm
06:09 AM 60.3°F15.7°C 54.7°F12.6°C 82% 9.9 mph 15.9 kmh 21.1 mph34.0 kmh -- 0.00 in0.0 mm 0.00 in0.0 mm 0.00 in0.0 mm
05:59 AM 59.7°F15.4°C 54.9°F12.7°C 84% 10.6 mph SW17.1 kmh SW 20.5 mph33.0 kmh -- 0.00 in0.0 mm 0.00 in0.0 mm 0.00 in0.0 mm
05:49 AM 58.8°F14.9°C 54.7°F12.6°C 86% 7.5 mph SW12.1 kmh SW 18.6 mph29.9 kmh -- 0.00 in0.0 mm 0.00 in0.0 mm 0.00 in0.0 mm
05:39 AM 57.7°F14.3°C 53.8°F12.1°C 87% 8.1 mph SW13.0 kmh SW 25.5 mph41.0 kmh -- 0.00 in0.0 mm 0.00 in0.0 mm 0.00 in0.0 mm
05:28 AM 57.4°F14.1°C 53.4°F11.9°C 87% 3.7 mph SW6.0 kmh SW 6.2 mph10.0 kmh -- 0.00 in0.0 mm 0.00 in0.0 mm 0.00 in0.0 mm
05:19 AM 57.2°F14.0°C 53.6°F12.0°C 88% 3.1 mph SW5.0 kmh SW 5.6 mph9.0 kmh -- 0.00 in0.0 mm 0.00 in0.0 mm 0.00 in0.0 mm
05:09 AM 57.0°F13.9°C 53.4°F11.9°C 88% 2.5 mph SW4.0 kmh SW 4.4 mph7.1 kmh -- 0.00 in0.0 mm 0.00 in0.0 mm 0.00 in0.0 mm
04:59 AM 56.8°F13.8°C 53.2°F11.8°C 88% 3.1 mph SW5.0 kmh SW 5.0 mph8.0 kmh -- 0.00 in0.0 mm 0.00 in0.0 mm 0.00 in0.0 mm
04:49 AM 56.8°F13.8°C 53.6°F12.0°C 89% 5.0 mph SW8.0 kmh SW 8.7 mph14.0 kmh -- 0.00 in0.0 mm 0.00 in0.0 mm 0.00 in0.0 mm
04:39 AM 56.5°F13.6°C 53.2°F11.8°C 89% 9.3 mph SW15.0 kmh SW 17.4 mph28.0 kmh -- 0.00 in0.0 mm 0.00 in0.0 mm 0.00 in0.0 mm
04:29 AM 56.1°F13.4°C 52.9°F11.6°C 89% 5.6 mph SW9.0 kmh SW 9.3 mph15.0 kmh -- 0.00 in0.0 mm 0.00 in0.0 mm 0.00 in0.0 mm
04:18 AM 55.9°F13.3°C 52.7°F11.5°C 89% 3.7 mph WSW6.0 kmh WSW 8.1 mph13.0 kmh -- 0.00 in0.0 mm 0.00 in0.0 mm 0.00 in0.0 mm
04:09 AM 55.8°F13.2°C 52.5°F11.4°C 89% 5.0 mph SW8.0 kmh SW 9.3 mph15.0 kmh -- 0.00 in0.0 mm 0.00 in0.0 mm 0.00 in0.0 mm
03:59 AM 55.6°F13.1°C 52.3°F11.3°C 89% 5.6 mph SW9.0 kmh SW 9.3 mph15.0 kmh -- 0.00 in0.0 mm 0.00 in0.0 mm 0.00 in0.0 mm
03:49 AM 55.4°F13.0°C 52.2°F11.2°C 89% 2.5 mph WSW4.0 kmh WSW 5.0 mph8.0 kmh -- 0.00 in0.0 mm 0.00 in0.0 mm 0.00 in0.0 mm
03:38 AM 55.4°F13.0°C 52.2°F11.2°C 89% 0.6 mph SW1.0 kmh SW 2.5 mph4.0 kmh -- 0.00 in0.0 mm 0.00 in0.0 mm 0.00 in0.0 mm
03:29 AM 55.2°F12.9°C 52.0°F11.1°C 89% Calm Calm 0.6 mph1.0 kmh -- 0.00 in0.0 mm 0.00 in0.0 mm 0.00 in0.0 mm
03:19 AM 55.2°F12.9°C 52.0°F11.1°C 89% 0.6 mph NE1.0 kmh NE 1.2 mph1.9 kmh -- 0.00 in0.0 mm 0.00 in0.0 mm 0.00 in0.0 mm
03:09 AM 55.2°F12.9°C 51.6°F10.9°C 88% 0.6 mph NNE1.0 kmh NNE 1.2 mph1.9 kmh -- 0.00 in0.0 mm 0.00 in0.0 mm 0.00 in0.0 mm
02:59 AM 55.4°F13.0°C 51.8°F11.0°C 88% 0.6 mph NW1.0 kmh NW 1.2 mph1.9 kmh -- 0.00 in0.0 mm 0.00 in0.0 mm 0.00 in0.0 mm
02:49 AM 55.4°F13.0°C 51.8°F11.0°C 88% 1.2 mph WNW1.9 kmh WNW 1.9 mph3.1 kmh -- 0.00 in0.0 mm 0.00 in0.0 mm 0.00 in0.0 mm
02:39 AM 55.6°F13.1°C 52.0°F11.1°C 88% 0.6 mph NE1.0 kmh NE 1.2 mph1.9 kmh -- 0.00 in0.0 mm 0.00 in0.0 mm 0.00 in0.0 mm
02:28 AM 55.6°F13.1°C 52.0°F11.1°C 88% 0.6 mph W1.0 kmh W 1.2 mph1.9 kmh -- 0.00 in0.0 mm 0.00 in0.0 mm 0.00 in0.0 mm
02:19 AM 55.6°F13.1°C 52.0°F11.1°C 88% 0.6 mph W1.0 kmh W 1.2 mph1.9 kmh -- 0.00 in0.0 mm 0.00 in0.0 mm 0.00 in0.0 mm
02:09 AM 55.8°F13.2°C 52.0°F11.1°C 87% 0.6 mph W1.0 kmh W 1.9 mph3.1 kmh -- 0.00 in0.0 mm 0.00 in0.0 mm 0.00 in0.0 mm
01:58 AM 55.8°F13.2°C 52.0°F11.1°C 87% 0.6 mph W1.0 kmh W 1.2 mph1.9 kmh -- 0.00 in0.0 mm 0.00 in0.0 mm 0.00 in0.0 mm
01:48 AM 55.9°F13.3°C 52.2°F11.2°C 87% 0.6 mph W1.0 kmh W 1.2 mph1.9 kmh -- 0.00 in0.0 mm 0.00 in0.0 mm 0.00 in0.0 mm
01:39 AM 55.9°F13.3°C 52.3°F11.3°C 88% 0.6 mph W1.0 kmh W 1.9 mph3.1 kmh -- 0.00 in0.0 mm 0.00 in0.0 mm 0.00 in0.0 mm
01:29 AM 55.9°F13.3°C 52.2°F11.2°C 87% 0.6 mph W1.0 kmh W 1.9 mph3.1 kmh -- 0.00 in0.0 mm 0.00 in0.0 mm 0.00 in0.0 mm
01:18 AM 56.1°F13.4°C 52.3°F11.3°C 87% 0.6 mph SW1.0 kmh SW 1.9 mph3.1 kmh -- 0.00 in0.0 mm 0.00 in0.0 mm 0.00 in0.0 mm
01:09 AM 56.1°F13.4°C 52.3°F11.3°C 87% 1.2 mph SW1.9 kmh SW 2.5 mph4.0 kmh -- 0.00 in0.0 mm 0.00 in0.0 mm 0.00 in0.0 mm
12:59 AM 56.3°F13.5°C 52.2°F11.2°C 86% 1.2 mph SW1.9 kmh SW 2.5 mph4.0 kmh -- 0.00 in0.0 mm 0.00 in0.0 mm 0.00 in0.0 mm
12:49 AM 56.5°F13.6°C 52.3°F11.3°C 86% 1.2 mph W1.9 kmh W 3.1 mph5.0 kmh -- 0.00 in0.0 mm 0.00 in0.0 mm 0.00 in0.0 mm
12:39 AM 56.7°F13.7°C 52.5°F11.4°C 86% 1.2 mph WSW1.9 kmh WSW 3.1 mph5.0 kmh -- 0.00 in0.0 mm 0.00 in0.0 mm 0.00 in0.0 mm
12:28 AM 56.8°F13.8°C 52.7°F11.5°C 86% 1.9 mph WNW3.1 kmh WNW 3.1 mph5.0 kmh -- 0.00 in0.0 mm 0.00 in0.0 mm 0.00 in0.0 mm
12:19 AM 57.0°F13.9°C 52.9°F11.6°C 86% 1.2 mph W1.9 kmh W 2.5 mph4.0 kmh -- 0.00 in0.0 mm 0.00 in0.0 mm 0.00 in0.0 mm
12:09 AM 57.0°F13.9°C 52.9°F11.6°C 86% 1.9 mph WSW3.1 kmh WSW 3.1 mph5.0 kmh -- 0.00 in0.0 mm 0.00 in0.0 mm 0.00 in0.0 mm